Time;durP1;ratioP1;P1;durP2;ratioP2;P2;SDS_P1;SDS_P2;PMS_P1;PMS_P2;Temp;Humidity;BMP_temperature;BMP_pressure;BME280_temperature;BME280_humidity;BME280_pressure;Samples;Min_cycle;Max_cycle;Signal;HPM_P1;HPM_P2
2022/03/18 00:00:18;;;;;;;38.45;23.10;;;7.30;99.90;;;;;;5071355;28;20235;-87
2022/03/18 00:02:45;;;;;;;32.33;22.27;;;7.50;99.90;;;;;;5070828;28;20224;-87
2022/03/18 00:05:12;;;;;;;31.60;21.80;;;7.30;99.90;;;;;;5066891;28;20680;-87
2022/03/18 00:07:41;;;;;;;34.75;22.83;;;7.60;99.90;;;;;;5064754;28;20259;-88
2022/03/18 00:10:09;;;;;;;33.10;21.75;;;7.30;99.90;;;;;;5072743;28;20686;-88
2022/03/18 00:12:37;;;;;;;36.42;22.95;;;;;;;;;;5071080;28;20291;-87
2022/03/18 00:15:07;;;;;;;38.33;22.35;;;7.30;99.90;;;;;;5070942;28;20279;-87
2022/03/18 00:17:34;;;;;;;31.35;20.92;;;7.50;99.90;;;;;;5059264;28;20203;-87
2022/03/18 00:20:01;;;;;;;33.13;22.23;;;;;;;;;;5070831;28;20711;-87
2022/03/18 00:22:28;;;;;;;33.83;23.35;;;;;;;;;;5070937;28;20301;-86
2022/03/18 00:24:56;;;;;;;30.50;21.25;;;7.60;99.90;;;;;;5070829;28;20662;-87
2022/03/18 00:27:25;;;;;;;29.30;19.98;;;;;;;;;;5070719;28;20214;-86
2022/03/18 00:29:52;;;;;;;29.08;21.05;;;;;;;;;;5070496;28;20211;-87
2022/03/18 00:32:19;;;;;;;33.45;22.02;;;7.60;99.90;;;;;;5070871;28;20206;-87
2022/03/18 00:34:46;;;;;;;31.45;20.20;;;7.30;99.90;;;;;;5070758;28;20767;-88
2022/03/18 00:37:13;;;;;;;30.40;20.27;;;;;;;;;;5070487;28;20282;-87
2022/03/18 00:39:40;;;;;;;27.52;20.17;;;;;;;;;;5070432;28;20207;-87
2022/03/18 00:42:09;;;;;;;28.45;18.70;;;7.30;99.90;;;;;;5067532;28;20211;-88
2022/03/18 00:44:37;;;;;;;29.70;19.45;;;7.30;99.90;;;;;;5070559;28;20229;-87
2022/03/18 00:51:58;;;;;;;27.85;19.00;;;7.00;99.90;;;;;;5070357;28;20196;-87
2022/03/18 00:52:35;;;;;;;25.38;18.35;;;7.30;99.90;;;;;;5054188;28;20292;-88
2022/03/18 00:55:02;;;;;;;33.30;19.27;;;6.90;99.90;;;;;;5065115;28;20205;-88
2022/03/18 00:57:31;;;;;;;27.90;18.50;;;7.10;99.90;;;;;;5070195;28;20234;-87
2022/03/18 00:59:57;;;;;;;23.67;17.80;;;7.20;99.90;;;;;;5070351;28;20199;-88
2022/03/18 01:02:24;;;;;;;22.92;16.55;;;6.90;99.90;;;;;;5064147;28;20219;-88
2022/03/18 01:04:51;;;;;;;27.20;18.50;;;7.40;99.90;;;;;;5053956;28;20216;-87
2022/03/18 01:07:18;;;;;;;28.95;18.85;;;7.10;99.90;;;;;;5070530;28;20203;-87
2022/03/18 01:09:46;;;;;;;27.23;18.58;;;7.10;99.90;;;;;;5069922;28;20294;-87
2022/03/18 01:12:14;;;;;;;23.00;15.90;;;;;;;;;;5070245;28;20214;-88
2022/03/18 01:14:43;;;;;;;30.17;19.92;;;7.00;99.90;;;;;;5069910;28;20780;-87
2022/03/18 01:17:10;;;;;;;25.38;17.70;;;7.60;99.90;;;;;;5069608;28;20191;-88
2022/03/18 01:19:38;;;;;;;25.27;17.55;;;;;;;;;;5069769;28;20195;-88
2022/03/18 01:22:08;;;;;;;24.75;18.10;;;;;;;;;;5069688;28;20215;-86
2022/03/18 01:24:37;;;;;;;20.17;16.30;;;7.00;99.90;;;;;;5069964;28;20286;-87
2022/03/18 01:27:05;;;;;;;24.17;17.38;;;7.10;99.90;;;;;;5070065;28;20203;-88
2022/03/18 01:29:34;;;;;;;21.98;15.43;;;7.80;99.90;;;;;;5069534;28;20203;-86
2022/03/18 01:32:02;;;;;;;29.52;17.73;;;7.00;99.90;;;;;;5070112;28;20192;-87
2022/03/18 01:34:30;;;;;;;20.98;15.07;;;;;;;;;;5070385;28;20219;-87
2022/03/18 01:36:57;;;;;;;23.98;15.95;;;7.00;99.90;;;;;;5069853;28;20207;-87
2022/03/18 01:39:24;;;;;;;24.02;16.27;;;;;;;;;;5068844;28;20196;-88
2022/03/18 01:41:52;;;;;;;23.80;17.45;;;;;;;;;;5058780;28;20219;-88
2022/03/18 01:44:20;;;;;;;27.05;17.27;;;6.90;99.90;;;;;;5069538;28;20677;-88
2022/03/18 01:46:47;;;;;;;25.08;17.20;;;;;;;;;;5049807;28;20253;-87
2022/03/18 01:49:16;;;;;;;22.25;16.25;;;;;;;;;;5061410;28;20250;-88
2022/03/18 01:51:43;;;;;;;22.13;17.00;;;;;;;;;;5069750;28;20226;-88
2022/03/18 01:56:55;;;;;;;22.65;16.25;;;;;;;;;;5063135;28;20569;-87
2022/03/18 01:59:23;;;;;;;19.08;13.80;;;;;;;;;;5069845;28;20201;-88
2022/03/18 02:01:50;;;;;;;21.45;15.40;;;6.90;99.90;;;;;;5069556;28;20203;-87
2022/03/18 02:04:19;;;;;;;22.40;14.95;;;;;;;;;;5056671;28;20713;-87
2022/03/18 02:06:46;;;;;;;24.00;15.45;;;;;;;;;;5067597;28;20203;-88
2022/03/18 02:09:14;;;;;;;22.35;16.17;;;;;;;;;;5069142;28;20192;-87
2022/03/18 02:11:42;;;;;;;21.05;15.45;;;;;;;;;;5069490;28;20188;-87
2022/03/18 02:14:10;;;;;;;25.55;15.15;;;7.20;99.90;;;;;;5069167;28;20252;-88
2022/03/18 02:16:39;;;;;;;20.10;14.30;;;6.70;99.90;;;;;;5060636;28;20621;-87
2022/03/18 02:19:07;;;;;;;18.88;14.63;;;6.80;99.90;;;;;;5069904;28;20282;-87
2022/03/18 02:21:40;;;;;;;21.85;15.95;;;6.80;99.90;;;;;;5069520;28;20199;-87
2022/03/18 02:24:09;;;;;;;22.63;15.20;;;;;;;;;;5069642;28;20749;-87
2022/03/18 02:26:37;;;;;;;20.00;13.75;;;7.40;99.90;;;;;;5069745;28;20544;-87
2022/03/18 02:29:04;;;;;;;25.50;15.85;;;;;;;;;;5069312;28;20574;-87
2022/03/18 02:31:32;;;;;;;21.42;15.10;;;;;;;;;;5069413;28;20275;-88
2022/03/18 02:33:59;;;;;;;20.88;13.55;;;6.30;99.90;;;;;;5069590;28;20706;-88
2022/03/18 02:36:27;;;;;;;25.10;16.83;;;7.00;99.90;;;;;;5069025;28;20855;-87
2022/03/18 02:38:54;;;;;;;23.08;14.15;;;;;;;;;;5069017;28;20297;-87
2022/03/18 02:41:23;;;;;;;19.17;13.73;;;6.60;99.90;;;;;;5061618;28;20207;-88
2022/03/18 02:43:50;;;;;;;21.95;15.32;;;;;;;;;;5066448;28;20226;-87
2022/03/18 02:46:17;;;;;;;21.13;14.60;;;6.80;99.90;;;;;;5069284;28;20200;-87
2022/03/18 02:48:45;;;;;;;20.27;14.38;;;;;;;;;;5069499;28;20206;-87
2022/03/18 02:51:13;;;;;;;20.80;13.90;;;;;;;;;;5066621;28;20474;-88
2022/03/18 02:53:40;;;;;;;21.55;14.02;;;;;;;;;;5072743;28;20218;-87
2022/03/18 02:56:07;;;;;;;20.42;14.18;;;;;;;;;;5072911;28;20252;-87
2022/03/18 02:58:37;;;;;;;20.92;15.45;;;6.90;99.90;;;;;;5072980;28;20203;-89
2022/03/18 03:01:04;;;;;;;20.05;14.02;;;6.90;99.90;;;;;;5072711;28;20195;-87
2022/03/18 03:03:31;;;;;;;23.10;14.35;;;6.60;99.90;;;;;;5072262;28;20261;-87
2022/03/18 03:08:43;;;;;;;21.17;14.52;;;;;;;;;;5071980;28;20199;-87
2022/03/18 03:11:10;;;;;;;21.92;14.77;;;;;;;;;;5072293;28;20191;-88
2022/03/18 03:13:38;;;;;;;21.40;14.80;;;6.70;99.90;;;;;;5072325;28;20203;-88
2022/03/18 03:16:08;;;;;;;20.08;13.48;;;6.90;99.90;;;;;;5067674;28;20285;-87
2022/03/18 03:18:35;;;;;;;19.08;13.63;;;6.60;99.90;;;;;;5072837;28;20210;-87
2022/03/18 03:21:02;;;;;;;21.77;13.93;;;6.70;99.90;;;;;;5072969;28;20656;-87
2022/03/18 03:23:29;;;;;;;18.42;12.95;;;;;;;;;;5072922;28;20304;-87
2022/03/18 03:25:57;;;;;;;17.60;13.07;;;6.90;99.90;;;;;;5072262;28;20215;-88
2022/03/18 03:28:24;;;;;;;16.52;13.13;;;6.90;99.90;;;;;;5071792;28;20195;-87
2022/03/18 03:30:53;;;;;;;17.73;13.23;;;6.80;99.90;;;;;;5072963;28;20229;-87
2022/03/18 03:33:20;;;;;;;23.40;14.15;;;;;;;;;;5072581;28;20587;-89
2022/03/18 03:35:47;;;;;;;12.52;11.05;;;;;;;;;;5072768;28;20662;-88
2022/03/18 03:38:14;;;;;;;19.75;13.68;;;6.90;99.90;;;;;;5072002;28;20285;-89
2022/03/18 03:40:42;;;;;;;20.92;14.40;;;7.00;99.90;;;;;;5063195;28;20200;-88
2022/03/18 03:43:09;;;;;;;19.00;13.43;;;6.90;99.90;;;;;;5066008;28;20273;-87
2022/03/18 03:45:37;;;;;;;19.75;13.95;;;;;;;;;;5052869;28;20238;-88
2022/03/18 03:48:06;;;;;;;19.55;13.38;;;6.70;99.90;;;;;;5052292;28;20223;-88
2022/03/18 03:50:33;;;;;;;18.50;13.85;;;;;;;;;;5072716;28;20279;-87
2022/03/18 03:53:01;;;;;;;18.60;12.40;;;6.80;99.90;;;;;;5072325;28;20564;-88
2022/03/18 03:55:28;;;;;;;18.48;13.55;;;6.90;99.90;;;;;;5071493;28;20255;-88
2022/03/18 03:57:55;;;;;;;17.48;13.38;;;6.90;99.90;;;;;;5072044;28;20256;-88
2022/03/18 04:00:22;;;;;;;20.08;13.82;;;;;;;;;;5072379;28;20195;-88
2022/03/18 04:02:49;;;;;;;22.73;14.88;;;6.80;99.90;;;;;;5071675;28;20226;-88
2022/03/18 04:05:17;;;;;;;19.33;14.45;;;6.90;99.90;;;;;;5072726;28;20230;-88
2022/03/18 04:07:45;;;;;;;19.35;13.43;;;6.80;99.90;;;;;;5073981;28;20222;-88
2022/03/18 04:10:14;;;;;;;20.35;13.13;;;6.90;99.90;;;;;;5069226;28;20196;-89
2022/03/18 04:12:42;;;;;;;20.13;14.43;;;6.90;99.90;;;;;;5072282;28;20275;-89
2022/03/18 04:15:10;;;;;;;18.52;13.20;;;6.60;99.90;;;;;;5071390;28;20203;-88
2022/03/18 04:17:39;;;;;;;22.05;14.65;;;6.80;99.90;;;;;;5071189;28;20203;-89
2022/03/18 04:20:09;;;;;;;26.98;15.45;;;6.80;99.90;;;;;;5071635;28;20194;-87
2022/03/18 04:22:38;;;;;;;18.70;13.68;;;6.90;99.90;;;;;;5071267;28;20194;-87
2022/03/18 04:25:07;;;;;;;24.42;14.88;;;6.60;99.90;;;;;;5071426;28;20195;-89
2022/03/18 04:27:34;;;;;;;21.67;15.00;;;6.90;99.90;;;;;;5071043;28;20215;-88
2022/03/18 04:30:01;;;;;;;24.13;14.40;;;;;;;;;;5071341;28;20199;-88
2022/03/18 04:32:29;;;;;;;21.50;14.80;;;;;;;;;;5071471;28;20245;-87
2022/03/18 04:34:56;;;;;;;23.10;14.43;;;6.60;99.90;;;;;;5071262;28;20550;-89
2022/03/18 04:37:22;;;;;;;21.27;13.70;;;6.70;99.90;;;;;;5071220;28;20222;-88
2022/03/18 04:39:51;;;;;;;21.20;14.20;;;;;;;;;;5071173;28;20260;-87
2022/03/18 04:42:18;;;;;;;23.98;15.02;;;;;;;;;;5064136;28;20223;-88
2022/03/18 04:44:45;;;;;;;21.90;12.85;;;7.30;99.90;;;;;;5066847;28;20314;-87
2022/03/18 04:47:13;;;;;;;19.55;13.48;;;6.70;99.90;;;;;;5070365;28;20241;-89
2022/03/18 04:49:40;;;;;;;16.42;12.27;;;;;;;;;;5070571;28;20229;-88
2022/03/18 04:52:08;;;;;;;22.45;15.40;;;6.90;99.90;;;;;;5070252;28;20264;-88
2022/03/18 04:54:35;;;;;;;19.98;13.68;;;;;;;;;;5070804;28;20195;-88
2022/03/18 04:57:15;;;;;;;20.17;13.32;;;;;;;;;;5070934;28;20274;-88
2022/03/18 04:59:42;;;;;;;22.05;15.00;;;6.70;99.90;;;;;;5071026;28;20230;-87
2022/03/18 05:02:10;;;;;;;19.23;14.38;;;6.60;99.90;;;;;;5070432;28;20195;-88
2022/03/18 05:04:37;;;;;;;19.58;12.90;;;;;;;;;;5070685;28;20281;-88
2022/03/18 05:07:05;;;;;;;22.67;14.50;;;6.70;99.90;;;;;;5070519;28;20198;-88
2022/03/18 05:09:32;;;;;;;21.05;14.65;;;6.60;99.90;;;;;;5070965;28;20230;-88
2022/03/18 05:11:59;;;;;;;22.08;15.10;;;6.60;99.90;;;;;;5070442;28;20753;-88
2022/03/18 05:14:27;;;;;;;20.25;14.38;;;6.90;99.90;;;;;;5070371;28;20195;-87
2022/03/18 05:16:54;;;;;;;19.85;13.73;;;6.80;99.90;;;;;;5068737;28;20195;-87
2022/03/18 05:19:21;;;;;;;21.80;14.32;;;6.30;99.90;;;;;;5070271;28;20199;-88
2022/03/18 05:21:48;;;;;;;26.10;15.88;;;6.70;99.90;;;;;;5070768;28;20207;-88
2022/03/18 05:24:15;;;;;;;21.60;14.23;;;;;;;;;;5071721;28;20314;-88
2022/03/18 05:26:42;;;;;;;22.27;16.02;;;6.50;99.90;;;;;;5071133;28;20268;-87
2022/03/18 05:29:09;;;;;;;21.20;15.40;;;;;;;;;;5061672;28;20192;-89
2022/03/18 05:31:37;;;;;;;24.50;15.50;;;6.80;99.90;;;;;;5071401;28;20204;-88
2022/03/18 05:34:04;;;;;;;23.27;14.20;;;6.70;99.90;;;;;;5071788;28;20199;-89
2022/03/18 05:36:31;;;;;;;23.55;15.57;;;;;;;;;;5070723;28;20252;-87
2022/03/18 05:38:59;;;;;;;19.40;14.65;;;6.60;99.90;;;;;;5071349;28;20203;-89
2022/03/18 05:41:26;;;;;;;20.63;13.45;;;;;;;;;;5064232;28;20281;-89
2022/03/18 05:43:53;;;;;;;18.52;13.18;;;6.90;99.90;;;;;;5068690;28;20212;-86
2022/03/18 05:46:20;;;;;;;19.88;13.50;;;6.70;99.90;;;;;;5070485;28;20199;-86
2022/03/18 05:48:48;;;;;;;22.15;14.30;;;;;;;;;;5070286;28;20569;-87
2022/03/18 05:51:15;;;;;;;21.70;15.15;;;6.70;99.90;;;;;;5068795;28;20200;-85
2022/03/18 05:53:42;;;;;;;25.42;14.27;;;6.80;99.90;;;;;;5059023;28;20223;-84
2022/03/18 05:58:54;;;;;;;18.40;14.05;;;6.80;99.90;;;;;;5070698;28;20195;-86
2022/03/18 06:01:21;;;;;;;18.55;14.82;;;6.80;99.90;;;;;;5070186;28;20199;-86
2022/03/18 06:03:50;;;;;;;22.52;15.93;;;6.70;99.90;;;;;;5069118;28;20255;-86
2022/03/18 06:06:17;;;;;;;25.60;14.48;;;6.80;99.90;;;;;;5066249;28;20207;-87
2022/03/18 06:14:14;;;;;;;22.63;14.05;;;6.70;99.90;;;;;;5069635;28;20198;-87
2022/03/18 06:16:40;;;;;;;21.55;14.38;;;6.60;99.90;;;;;;5067258;28;20199;-87
2022/03/18 06:19:10;;;;;;;27.58;16.98;;;6.60;99.90;;;;;;5069638;28;20744;-85
2022/03/18 06:21:41;;;;;;;23.00;15.95;;;6.70;99.90;;;;;;5063872;28;20203;-86
2022/03/18 06:24:09;;;;;;;26.20;17.27;;;7.10;99.90;;;;;;5055526;28;20752;-87
2022/03/18 06:26:36;;;;;;;26.75;18.42;;;6.60;99.90;;;;;;5063156;28;20195;-87
2022/03/18 06:29:03;;;;;;;24.17;16.58;;;6.40;99.90;;;;;;5061471;28;20665;-86
2022/03/18 06:31:33;;;;;;;24.77;15.95;;;6.90;99.90;;;;;;5064582;28;20203;-87
2022/03/18 06:34:01;;;;;;;23.20;16.58;;;;;;;;;;5065070;28;20548;-88
2022/03/18 06:36:29;;;;;;;23.95;16.35;;;6.70;99.90;;;;;;5059807;28;20591;-87
2022/03/18 06:38:58;;;;;;;22.52;16.50;;;6.40;99.90;;;;;;5062564;28;20253;-86
2022/03/18 06:41:25;;;;;;;20.65;14.82;;;;;;;;;;5062782;28;20199;-87
2022/03/18 06:43:52;;;;;;;26.38;16.73;;;6.70;99.90;;;;;;5061207;28;20220;-87
2022/03/18 06:46:19;;;;;;;31.50;17.45;;;;;;;;;;5062596;28;20304;-87
2022/03/18 06:48:48;;;;;;;23.52;16.02;;;6.70;99.90;;;;;;5063522;28;20198;-87
2022/03/18 06:51:18;;;;;;;21.75;16.00;;;6.70;99.90;;;;;;5065457;28;20688;-87
2022/03/18 06:53:47;;;;;;;21.27;14.85;;;;;;;;;;5062523;28;20694;-87
2022/03/18 06:56:55;;;;;;;26.52;17.65;;;6.90;99.90;;;;;;5062194;28;20203;-90
2022/03/18 06:59:22;;;;;;;29.10;15.60;;;6.80;99.90;;;;;;5056347;28;20204;-85
2022/03/18 07:01:49;;;;;;;29.27;16.92;;;6.70;99.90;;;;;;5038571;28;20244;-84
2022/03/18 07:04:16;;;;;;;26.00;16.95;;;6.80;99.90;;;;;;5062214;28;20247;-85
2022/03/18 07:06:43;;;;;;;27.15;16.35;;;7.10;99.90;;;;;;5063895;28;20195;-85
2022/03/18 07:09:12;;;;;;;25.17;15.40;;;7.10;99.90;;;;;;5061562;28;20196;-85
2022/03/18 07:11:39;;;;;;;27.45;17.80;;;7.00;99.90;;;;;;5063940;28;20570;-84
2022/03/18 07:14:06;;;;;;;30.83;17.42;;;;;;;;;;5065597;28;20279;-85
2022/03/18 07:19:17;;;;;;;29.58;18.35;;;6.80;99.90;;;;;;5063446;28;20270;-84
2022/03/18 07:21:44;;;;;;;23.52;17.67;;;6.90;99.90;;;;;;5061568;28;20254;-84
2022/03/18 07:24:12;;;;;;;28.17;17.67;;;6.90;99.90;;;;;;5064502;28;20259;-85
2022/03/18 07:26:39;;;;;;;30.33;18.95;;;7.70;99.90;;;;;;5062425;28;20670;-85
2022/03/18 07:29:06;;;;;;;28.55;19.63;;;7.00;99.90;;;;;;5062255;28;20201;-86
2022/03/18 07:31:33;;;;;;;25.85;19.25;;;;;;;;;;5061196;28;20447;-84
2022/03/18 07:34:00;;;;;;;31.80;18.55;;;;;;;;;;5058148;28;20681;-85
2022/03/18 07:36:27;;;;;;;28.95;19.95;;;7.00;99.90;;;;;;5059744;28;20674;-86
2022/03/18 07:38:54;;;;;;;30.20;20.17;;;;;;;;;;5068581;28;20192;-84
2022/03/18 07:41:23;;;;;;;30.88;20.25;;;7.10;99.90;;;;;;5061563;28;20261;-84
2022/03/18 07:43:50;;;;;;;35.80;20.50;;;7.40;99.90;;;;;;5061894;28;20231;-85
2022/03/18 07:46:17;;;;;;;36.97;21.10;;;7.50;99.90;;;;;;5061127;28;20680;-84
2022/03/18 07:48:45;;;;;;;28.80;18.83;;;7.40;99.90;;;;;;5062020;28;20196;-85
2022/03/18 07:51:12;;;;;;;27.02;18.85;;;7.40;99.90;;;;;;5063922;28;20211;-84
2022/03/18 07:53:39;;;;;;;30.85;20.30;;;7.20;99.90;;;;;;5060282;28;20200;-84
2022/03/18 07:56:06;;;;;;;35.90;22.25;;;7.50;99.90;;;;;;5062202;28;20619;-84
2022/03/18 07:58:35;;;;;;;28.50;19.45;;;7.40;99.90;;;;;;5062840;28;20338;-84
2022/03/18 08:01:01;;;;;;;30.75;22.25;;;6.30;99.90;;;;;;5064679;28;20204;-84
2022/03/18 08:03:29;;;;;;;33.85;21.13;;;;;;;;;;5061495;28;20212;-84
2022/03/18 08:05:56;;;;;;;35.22;23.42;;;7.80;99.90;;;;;;5060449;28;20234;-84
2022/03/18 08:08:23;;;;;;;35.35;22.80;;;7.70;99.90;;;;;;5050899;28;20490;-84
2022/03/18 08:10:50;;;;;;;35.15;22.35;;;7.90;99.90;;;;;;5061718;28;20617;-83
2022/03/18 08:13:17;;;;;;;35.60;22.30;;;7.60;99.90;;;;;;5063719;28;20237;-84
2022/03/18 08:15:46;;;;;;;36.30;23.00;;;7.90;99.90;;;;;;5061946;28;20714;-86
2022/03/18 08:18:13;;;;;;;39.40;22.48;;;7.90;99.90;;;;;;5071884;28;20567;-84
2022/03/18 08:20:40;;;;;;;36.22;23.90;;;8.60;99.90;;;;;;5071878;28;20230;-84
2022/03/18 08:23:08;;;;;;;36.20;24.40;;;7.40;99.90;;;;;;5066703;28;20290;-85
2022/03/18 08:25:35;;;;;;;39.72;23.77;;;7.80;99.90;;;;;;5063971;28;20256;-85
2022/03/18 08:28:02;;;;;;;41.95;23.20;;;6.90;99.90;;;;;;5055893;28;20756;-85
2022/03/18 08:30:29;;;;;;;41.67;24.58;;;7.80;99.90;;;;;;5062174;28;20314;-84
2022/03/18 08:32:57;;;;;;;40.17;25.10;;;8.10;99.90;;;;;;5064012;28;20196;-85
2022/03/18 08:35:24;;;;;;;36.38;24.02;;;8.20;99.90;;;;;;5064340;28;20196;-84
2022/03/18 08:37:57;;;;;;;35.65;22.63;;;8.10;99.90;;;;;;5061609;28;20265;-84
2022/03/18 08:40:26;;;;;;;38.67;23.77;;;8.20;99.90;;;;;;5061281;28;20196;-84
2022/03/18 08:42:55;;;;;;;41.28;25.75;;;8.40;99.90;;;;;;5060524;28;20205;-84
2022/03/18 08:45:23;;;;;;;34.85;24.38;;;8.20;99.90;;;;;;5061653;28;20304;-85
2022/03/18 08:47:50;;;;;;;40.72;26.45;;;8.30;99.90;;;;;;5060334;28;20192;-84
2022/03/18 08:50:20;;;;;;;36.90;26.15;;;8.20;99.90;;;;;;5058753;28;20198;-84
2022/03/18 08:52:47;;;;;;;36.63;23.10;;;8.20;99.90;;;;;;5061050;28;20199;-85
2022/03/18 08:55:15;;;;;;;36.40;24.70;;;8.30;99.90;;;;;;5056329;28;20202;-85
2022/03/18 08:57:42;;;;;;;39.95;23.52;;;;;;;;;;5067984;28;20199;-84
2022/03/18 09:00:11;;;;;;;35.13;23.90;;;8.00;99.90;;;;;;5071801;28;20260;-85
2022/03/18 09:02:39;;;;;;;38.03;23.70;;;8.50;99.90;;;;;;5059082;28;20252;-84
2022/03/18 09:05:08;;;;;;;33.85;23.70;;;8.50;99.90;;;;;;5065088;28;20301;-84
2022/03/18 09:07:38;;;;;;;33.80;24.20;;;8.40;99.90;;;;;;5070300;28;20289;-84
2022/03/18 09:12:59;;;;;;;36.60;23.23;;;;;;;;;;5052450;28;20204;-84
2022/03/18 09:15:26;;;;;;;33.75;22.95;;;8.70;99.90;;;;;;5066426;28;20208;-84
2022/03/18 09:17:53;;;;;;;34.42;22.40;;;8.70;99.90;;;;;;5070893;28;20242;-84
2022/03/18 09:20:20;;;;;;;28.60;22.70;;;;;;;;;;5067809;28;20209;-84
2022/03/18 09:22:49;;;;;;;31.70;21.38;;;;;;;;;;5052660;28;20338;-85
2022/03/18 09:25:16;;;;;;;28.52;20.75;;;;;;;;;;5060223;28;20227;-85
2022/03/18 09:27:43;;;;;;;32.88;21.77;;;9.10;99.90;;;;;;5061672;28;20620;-84
2022/03/18 09:30:12;;;;;;;30.83;21.65;;;8.50;99.90;;;;;;5070793;28;20208;-84
2022/03/18 09:32:40;;;;;;;29.02;20.73;;;8.60;99.90;;;;;;5070552;28;20203;-84
2022/03/18 09:35:08;;;;;;;27.55;19.33;;;9.90;99.90;;;;;;5068950;28;20211;-84
2022/03/18 09:37:35;;;;;;;28.08;19.08;;;9.40;99.90;;;;;;5066641;28;20282;-84
2022/03/18 09:40:07;;;;;;;30.77;19.85;;;9.20;99.90;;;;;;5070615;28;20739;-84
2022/03/18 09:42:35;;;;;;;30.05;20.63;;;9.20;99.90;;;;;;5070706;28;20198;-85
2022/03/18 09:45:02;;;;;;;28.00;19.17;;;8.30;98.70;;;;;;5070960;28;20559;-84
2022/03/18 09:47:29;;;;;;;26.58;20.30;;;;;;;;;;5070005;28;20217;-84
2022/03/18 09:49:56;;;;;;;28.85;20.88;;;9.00;99.90;;;;;;5070022;28;20203;-84
2022/03/18 09:52:23;;;;;;;29.10;21.13;;;9.00;99.90;;;;;;5058029;28;20203;-84
2022/03/18 09:54:52;;;;;;;27.67;19.47;;;8.80;99.90;;;;;;5061917;28;20200;-84
2022/03/18 09:57:21;;;;;;;29.20;21.80;;;9.20;99.90;;;;;;5054494;28;21219;-84
2022/03/18 09:59:48;;;;;;;31.55;19.25;;;;;;;;;;5062301;28;20222;-84
2022/03/18 10:02:27;;;;;;;26.20;19.30;;;9.00;99.90;;;;;;5070409;28;20206;-84
2022/03/18 10:04:55;;;;;;;29.02;18.55;;;9.30;99.90;;;;;;5052634;28;20727;-84
2022/03/18 10:07:22;;;;;;;27.97;20.10;;;9.10;99.90;;;;;;5059608;28;20259;-84
2022/03/18 10:09:49;;;;;;;27.73;20.80;;;9.40;97.70;;;;;;5069234;28;20628;-84
2022/03/18 10:12:31;;;;;;;26.57;18.70;;;9.50;96.80;;;;;;5070113;28;20623;-84
2022/03/18 10:15:10;;;;;;;33.55;20.85;;;9.50;99.90;;;;;;5066545;28;20617;-84
2022/03/18 10:17:48;;;;;;;28.73;20.08;;;9.50;99.90;;;;;;5052042;28;20222;-84
2022/03/18 10:20:30;;;;;;;32.27;21.13;;;9.50;99.90;;;;;;5063986;28;20253;-84
2022/03/18 10:23:02;;;;;;;32.10;20.10;;;9.50;96.90;;;;;;5069868;28;20624;-84
2022/03/18 10:25:49;;;;;;;28.37;19.97;;;9.60;97.40;;;;;;5070241;28;20655;-84
2022/03/18 10:28:32;;;;;;;30.20;19.93;;;9.70;99.90;;;;;;5063236;28;20884;-84
2022/03/18 10:31:11;;;;;;;30.87;20.10;;;9.80;96.60;;;;;;5056039;28;21118;-84
2022/03/18 10:39:25;;;;;;;30.20;20.80;;;10.00;96.90;;;;;;5060266;28;20624;-84
2022/03/18 10:41:52;;;;;;;26.97;19.27;;;10.30;99.90;;;;;;5060073;28;20628;-86
2022/03/18 10:44:21;;;;;;;37.20;21.40;;;10.20;93.70;;;;;;5058436;28;20615;-86
2022/03/18 10:46:49;;;;;;;28.10;19.47;;;9.90;99.90;;;;;;5058715;28;20648;-85
2022/03/18 10:49:17;;;;;;;28.70;19.80;;;;;;;;;;5058701;28;20618;-85
2022/03/18 10:51:44;;;;;;;28.97;20.33;;;10.00;94.50;;;;;;5057492;28;20728;-85
2022/03/18 10:54:11;;;;;;;32.43;21.17;;;9.80;99.90;;;;;;5060889;28;20630;-85
2022/03/18 10:56:55;;;;;;;28.77;21.10;;;10.00;94.30;;;;;;5052645;28;20669;-85
2022/03/18 10:59:26;;;;;;;31.20;19.80;;;9.90;99.90;;;;;;5062951;28;20660;-85
2022/03/18 11:01:53;;;;;;;31.03;19.60;;;11.00;98.40;;;;;;5059851;28;20625;-85
2022/03/18 11:04:23;;;;;;;29.83;19.43;;;10.20;99.90;;;;;;5056480;28;20625;-85
2022/03/18 11:11:06;;;;;;;30.53;20.67;;;13.90;94.90;;;;;;5050192;28;20624;-85
2022/03/18 11:12:23;;;;;;;26.50;19.10;;;10.40;94.50;;;;;;5051657;28;21024;-85
2022/03/18 11:14:55;;;;;;;32.53;23.60;;;10.60;92.80;;;;;;5062533;28;20621;-85
2022/03/18 11:17:23;;;;;;;32.43;22.00;;;10.50;99.90;;;;;;5062533;28;21008;-85
2022/03/18 11:19:52;;;;;;;30.23;20.10;;;10.50;93.80;;;;;;5074335;28;20628;-85
2022/03/18 11:22:21;;;;;;;29.37;20.53;;;11.30;96.10;;;;;;5073854;28;20644;-85
2022/03/18 11:24:49;;;;;;;29.10;20.53;;;10.50;93.80;;;;;;5073535;28;20691;-86
2022/03/18 11:27:17;;;;;;;29.20;21.10;;;;;;;;;;5070980;28;20698;-86
2022/03/18 11:29:44;;;;;;;29.37;21.80;;;10.80;99.90;;;;;;5069774;28;21158;-85
2022/03/18 11:32:23;;;;;;;32.17;23.00;;;11.00;99.80;;;;;;5062526;28;20674;-85
2022/03/18 11:34:52;;;;;;;30.20;21.40;;;10.80;99.90;;;;;;5056067;28;20613;-84
2022/03/18 11:37:19;;;;;;;30.50;22.37;;;;;;;;;;5067349;28;20687;-85
2022/03/18 11:39:47;;;;;;;26.40;19.90;;;10.80;99.90;;;;;;5073790;28;20617;-85
2022/03/18 11:42:19;;;;;;;31.63;21.17;;;10.90;94.10;;;;;;5071363;28;20834;-85
2022/03/18 11:44:53;;;;;;;35.67;21.93;;;10.80;99.90;;;;;;5073639;28;20652;-85
2022/03/18 11:47:43;;;;;;;29.93;21.70;;;11.00;93.20;;;;;;5072025;28;20627;-85
2022/03/18 11:50:41;;;;;;;28.87;20.13;;;11.30;99.90;;;;;;5073263;28;20617;-85
2022/03/18 11:53:12;;;;;;;26.17;19.90;;;11.40;99.90;;;;;;5018380;28;20729;-85
2022/03/18 11:55:39;;;;;;;32.13;21.57;;;11.40;99.90;;;;;;5059520;28;20720;-84
2022/03/18 11:58:28;;;;;;;29.90;20.17;;;11.70;98.30;;;;;;5072126;28;20627;-85
2022/03/18 12:00:56;;;;;;;32.10;21.10;;;11.30;99.10;;;;;;5054703;28;20618;-85
2022/03/18 12:03:29;;;;;;;32.83;21.00;;;11.50;91.70;;;;;;5068014;28;20618;-85
2022/03/18 12:05:59;;;;;;;28.43;20.83;;;11.80;99.90;;;;;;5053117;28;20753;-85
2022/03/18 12:09:03;;;;;;;28.80;20.80;;;11.50;99.50;;;;;;5055281;28;20646;-85
2022/03/18 12:11:38;;;;;;;26.53;20.50;;;11.60;92.30;;;;;;5054837;28;20626;-85
2022/03/18 12:14:09;;;;;;;29.10;20.57;;;11.50;92.00;;;;;;5058995;28;21038;-85
2022/03/18 12:16:37;;;;;;;30.57;20.33;;;11.20;91.80;;;;;;5066235;28;20629;-85
2022/03/18 12:19:12;;;;;;;29.67;21.37;;;11.70;91.80;;;;;;5061082;28;20610;-85
2022/03/18 12:21:44;;;;;;;28.00;20.70;;;11.60;91.60;;;;;;5063541;28;20634;-87
2022/03/18 12:24:14;;;;;;;33.03;22.40;;;11.60;92.00;;;;;;5063057;28;20613;-87
2022/03/18 12:26:41;;;;;;;30.90;20.93;;;11.70;99.90;;;;;;5063214;28;20652;-87
2022/03/18 12:32:23;;;;;;;27.30;22.10;;;;;;;;;;5061819;28;20971;-89
2022/03/18 12:34:53;;;;;;;29.60;21.37;;;12.00;92.00;;;;;;5065069;28;20626;-87
2022/03/18 12:37:22;;;;;;;29.83;21.50;;;12.00;99.90;;;;;;5072203;28;20682;-87
2022/03/18 12:40:03;;;;;;;30.90;23.60;;;12.20;98.30;;;;;;5068657;28;20618;-88
2022/03/18 12:42:30;;;;;;;30.60;21.23;;;12.00;98.10;;;;;;5060306;28;20638;-87
2022/03/18 12:44:59;;;;;;;29.87;22.63;;;12.00;90.80;;;;;;5059696;28;20654;-88
2022/03/18 12:47:30;;;;;;;30.10;21.77;;;11.90;98.90;;;;;;5068653;28;21058;-87
2022/03/18 12:50:00;;;;;;;29.60;22.93;;;12.40;97.50;;;;;;5062205;28;20625;-86
2022/03/18 12:52:27;;;;;;;28.83;22.30;;;12.30;99.10;;;;;;5067512;28;20628;-87
2022/03/18 12:55:05;;;;;;;28.77;22.13;;;12.00;97.80;;;;;;5071709;28;21013;-87
2022/03/18 12:57:34;;;;;;;30.90;23.60;;;12.40;96.90;;;;;;5064260;28;20618;-88
2022/03/18 13:00:01;;;;;;;30.93;23.10;;;12.20;99.90;;;;;;5061383;28;20628;-87
2022/03/18 13:02:28;;;;;;;31.43;24.27;;;;;;;;;;5055645;28;20882;-87
2022/03/18 13:05:00;;;;;;;31.53;23.17;;;12.40;99.90;;;;;;5059662;28;20704;-87
2022/03/18 13:07:28;;;;;;;28.50;21.70;;;;;;;;;;5059389;28;21020;-85
2022/03/18 13:09:55;;;;;;;28.20;20.40;;;12.40;96.10;;;;;;5067730;28;20629;-85
2022/03/18 13:12:25;;;;;;;29.67;21.80;;;11.80;89.50;;;;;;5071564;28;20637;-85
2022/03/18 13:14:56;;;;;;;27.00;21.33;;;;;;;;;;5066883;28;20617;-85
2022/03/18 13:17:24;;;;;;;28.60;19.73;;;12.40;96.30;;;;;;5071011;28;20598;-85
2022/03/18 13:19:53;;;;;;;27.50;22.23;;;12.70;99.90;;;;;;5057673;28;20610;-88
2022/03/18 13:22:23;;;;;;;29.03;21.10;;;12.30;92.30;;;;;;5059890;28;20610;-87
2022/03/18 13:24:52;;;;;;;29.93;19.70;;;12.20;88.00;;;;;;5061940;28;20621;-86
2022/03/18 13:27:20;;;;;;;25.43;19.47;;;12.50;99.90;;;;;;5060203;28;20688;-87
2022/03/18 13:32:56;;;;;;;27.73;21.60;;;12.40;95.70;;;;;;5006683;28;20616;-87
2022/03/18 13:35:28;;;;;;;26.37;19.77;;;12.70;93.40;;;;;;5007446;28;20731;-86
2022/03/18 13:38:07;;;;;;;28.67;21.17;;;12.40;83.30;;;;;;5038911;28;20629;-88
2022/03/18 13:40:55;;;;;;;28.10;20.67;;;12.10;95.80;;;;;;5061513;28;21010;-89
2022/03/18 13:43:27;;;;;;;27.43;20.80;;;;;;;;;;5061490;28;20615;-90